sensor_id;sensor_type;location;lat;lon;timestamp;temperature;humidity
24262;DHT22;12385;51.412;5.540;2022-11-15T00:01:47;8.80;99.90
24262;DHT22;12385;51.412;5.540;2022-11-15T00:04:13;8.80;99.90
24262;DHT22;12385;51.412;5.540;2022-11-15T00:06:38;8.90;99.90
24262;DHT22;12385;51.412;5.540;2022-11-15T00:09:04;8.90;99.90
24262;DHT22;12385;51.412;5.540;2022-11-15T00:11:30;8.90;99.90
24262;DHT22;12385;51.412;5.540;2022-11-15T00:13:56;8.90;99.90
24262;DHT22;12385;51.412;5.540;2022-11-15T00:16:22;9.00;99.90
24262;DHT22;12385;51.412;5.540;2022-11-15T00:18:48;9.00;99.90
24262;DHT22;12385;51.412;5.540;2022-11-15T00:21:14;9.00;99.90
24262;DHT22;12385;51.412;5.540;2022-11-15T00:23:40;9.10;99.90
24262;DHT22;12385;51.412;5.540;2022-11-15T00:26:06;9.10;99.90
24262;DHT22;12385;51.412;5.540;2022-11-15T00:28:32;9.10;99.90
24262;DHT22;12385;51.412;5.540;2022-11-15T00:31:05;9.20;99.90
24262;DHT22;12385;51.412;5.540;2022-11-15T00:33:31;9.20;99.90
24262;DHT22;12385;51.412;5.540;2022-11-15T00:36:08;9.20;99.90
24262;DHT22;12385;51.412;5.540;2022-11-15T00:38:38;9.20;99.90
24262;DHT22;12385;51.412;5.540;2022-11-15T00:41:05;9.20;99.90
24262;DHT22;12385;51.412;5.540;2022-11-15T00:43:31;9.30;99.90
24262;DHT22;12385;51.412;5.540;2022-11-15T00:45:57;9.30;99.90
24262;DHT22;12385;51.412;5.540;2022-11-15T00:48:23;9.40;99.90
24262;DHT22;12385;51.412;5.540;2022-11-15T00:50:49;9.40;99.90
24262;DHT22;12385;51.412;5.540;2022-11-15T00:53:16;9.50;99.90
24262;DHT22;12385;51.412;5.540;2022-11-15T00:55:42;9.50;99.90
24262;DHT22;12385;51.412;5.540;2022-11-15T00:58:08;9.50;99.90
24262;DHT22;12385;51.412;5.540;2022-11-15T01:00:34;9.50;99.90
24262;DHT22;12385;51.412;5.540;2022-11-15T01:03:00;9.50;99.90
24262;DHT22;12385;51.412;5.540;2022-11-15T01:05:27;9.60;99.90
24262;DHT22;12385;51.412;5.540;2022-11-15T01:07:53;9.60;99.90
24262;DHT22;12385;51.412;5.540;2022-11-15T01:10:19;9.60;99.90
24262;DHT22;12385;51.412;5.540;2022-11-15T01:12:44;9.70;99.90
24262;DHT22;12385;51.412;5.540;2022-11-15T01:15:10;9.70;99.90
24262;DHT22;12385;51.412;5.540;2022-11-15T01:17:37;9.70;99.90
24262;DHT22;12385;51.412;5.540;2022-11-15T01:20:03;9.70;99.90
24262;DHT22;12385;51.412;5.540;2022-11-15T01:22:29;9.80;99.90
24262;DHT22;12385;51.412;5.540;2022-11-15T01:24:54;9.80;99.90
24262;DHT22;12385;51.412;5.540;2022-11-15T01:27:20;9.80;99.90
24262;DHT22;12385;51.412;5.540;2022-11-15T01:29:46;9.80;99.90
24262;DHT22;12385;51.412;5.540;2022-11-15T01:32:11;9.80;99.90
24262;DHT22;12385;51.412;5.540;2022-11-15T01:34:38;9.80;99.90
24262;DHT22;12385;51.412;5.540;2022-11-15T01:37:04;9.80;99.90
24262;DHT22;12385;51.412;5.540;2022-11-15T01:39:29;9.90;99.90
24262;DHT22;12385;51.412;5.540;2022-11-15T01:41:55;9.90;99.90
24262;DHT22;12385;51.412;5.540;2022-11-15T01:44:46;9.90;99.90
24262;DHT22;12385;51.412;5.540;2022-11-15T01:47:37;10.00;99.90
24262;DHT22;12385;51.412;5.540;2022-11-15T01:50:05;10.00;99.90
24262;DHT22;12385;51.412;5.540;2022-11-15T01:52:32;10.00;99.90
24262;DHT22;12385;51.412;5.540;2022-11-15T01:55:21;10.00;99.90
24262;DHT22;12385;51.412;5.540;2022-11-15T01:57:51;10.10;99.90
24262;DHT22;12385;51.412;5.540;2022-11-15T02:00:18;10.10;99.90
24262;DHT22;12385;51.412;5.540;2022-11-15T02:02:44;10.10;99.90
24262;DHT22;12385;51.412;5.540;2022-11-15T02:05:10;10.20;99.90
24262;DHT22;12385;51.412;5.540;2022-11-15T02:07:36;10.20;99.90
24262;DHT22;12385;51.412;5.540;2022-11-15T02:10:08;10.20;99.90
24262;DHT22;12385;51.412;5.540;2022-11-15T02:12:34;10.30;99.90
24262;DHT22;12385;51.412;5.540;2022-11-15T02:15:00;10.30;99.90
24262;DHT22;12385;51.412;5.540;2022-11-15T02:17:58;10.40;99.90
24262;DHT22;12385;51.412;5.540;2022-11-15T02:20:39;10.50;99.90
24262;DHT22;12385;51.412;5.540;2022-11-15T02:23:23;10.50;99.90
24262;DHT22;12385;51.412;5.540;2022-11-15T02:25:57;10.50;99.90
24262;DHT22;12385;51.412;5.540;2022-11-15T02:28:50;10.50;99.90
24262;DHT22;12385;51.412;5.540;2022-11-15T02:31:28;10.60;99.90
24262;DHT22;12385;51.412;5.540;2022-11-15T02:34:21;10.60;99.90
24262;DHT22;12385;51.412;5.540;2022-11-15T02:39:49;10.70;99.90
24262;DHT22;12385;51.412;5.540;2022-11-15T02:42:25;10.70;99.90
24262;DHT22;12385;51.412;5.540;2022-11-15T02:45:15;10.80;99.90
24262;DHT22;12385;51.412;5.540;2022-11-15T02:47:44;10.80;99.90
24262;DHT22;12385;51.412;5.540;2022-11-15T02:50:14;10.90;99.90
24262;DHT22;12385;51.412;5.540;2022-11-15T02:52:44;10.90;99.90
24262;DHT22;12385;51.412;5.540;2022-11-15T02:55:30;10.90;99.90
24262;DHT22;12385;51.412;5.540;2022-11-15T03:00:59;11.00;99.90
24262;DHT22;12385;51.412;5.540;2022-11-15T03:11:53;11.10;99.90
24262;DHT22;12385;51.412;5.540;2022-11-15T03:14:28;11.10;99.90
24262;DHT22;12385;51.412;5.540;2022-11-15T03:17:16;11.10;99.90
24262;DHT22;12385;51.412;5.540;2022-11-15T03:19:49;11.20;99.90
24262;DHT22;12385;51.412;5.540;2022-11-15T03:22:19;11.20;99.90
24262;DHT22;12385;51.412;5.540;2022-11-15T03:24:46;11.20;99.90
24262;DHT22;12385;51.412;5.540;2022-11-15T03:27:19;11.10;99.90
24262;DHT22;12385;51.412;5.540;2022-11-15T03:29:53;11.10;99.90
24262;DHT22;12385;51.412;5.540;2022-11-15T03:32:28;11.20;99.90
24262;DHT22;12385;51.412;5.540;2022-11-15T03:35:21;11.20;99.90
24262;DHT22;12385;51.412;5.540;2022-11-15T03:41:04;11.30;99.90
24262;DHT22;12385;51.412;5.540;2022-11-15T03:43:41;11.20;99.90
24262;DHT22;12385;51.412;5.540;2022-11-15T03:46:14;11.20;99.90
24262;DHT22;12385;51.412;5.540;2022-11-15T03:48:43;11.30;99.90
24262;DHT22;12385;51.412;5.540;2022-11-15T03:51:12;11.20;99.90
24262;DHT22;12385;51.412;5.540;2022-11-15T03:53:38;11.20;99.90
24262;DHT22;12385;51.412;5.540;2022-11-15T03:56:04;11.30;99.90
24262;DHT22;12385;51.412;5.540;2022-11-15T03:58:29;11.30;99.90
24262;DHT22;12385;51.412;5.540;2022-11-15T04:00:55;11.30;99.90
24262;DHT22;12385;51.412;5.540;2022-11-15T04:03:20;11.30;99.90
24262;DHT22;12385;51.412;5.540;2022-11-15T04:05:46;11.30;99.90
24262;DHT22;12385;51.412;5.540;2022-11-15T04:08:12;11.40;99.90
24262;DHT22;12385;51.412;5.540;2022-11-15T04:10:37;11.40;99.90
24262;DHT22;12385;51.412;5.540;2022-11-15T04:13:03;11.40;99.90
24262;DHT22;12385;51.412;5.540;2022-11-15T04:15:29;11.40;99.90
24262;DHT22;12385;51.412;5.540;2022-11-15T04:17:56;11.40;99.90
24262;DHT22;12385;51.412;5.540;2022-11-15T04:20:27;11.40;99.90
24262;DHT22;12385;51.412;5.540;2022-11-15T04:23:20;11.40;99.90
24262;DHT22;12385;51.412;5.540;2022-11-15T04:26:22;11.40;99.90
24262;DHT22;12385;51.412;5.540;2022-11-15T04:28:48;11.40;99.90
24262;DHT22;12385;51.412;5.540;2022-11-15T04:31:33;11.40;99.90
24262;DHT22;12385;51.412;5.540;2022-11-15T04:33:58;11.40;99.90
24262;DHT22;12385;51.412;5.540;2022-11-15T04:36:24;11.50;99.90
24262;DHT22;12385;51.412;5.540;2022-11-15T04:39:09;11.50;99.90
24262;DHT22;12385;51.412;5.540;2022-11-15T04:41:35;11.50;99.90
24262;DHT22;12385;51.412;5.540;2022-11-15T04:44:00;11.60;99.90
24262;DHT22;12385;51.412;5.540;2022-11-15T04:46:26;11.50;99.90
24262;DHT22;12385;51.412;5.540;2022-11-15T04:48:53;11.50;99.90
24262;DHT22;12385;51.412;5.540;2022-11-15T04:51:20;11.50;99.90
24262;DHT22;12385;51.412;5.540;2022-11-15T04:53:45;11.60;99.90
24262;DHT22;12385;51.412;5.540;2022-11-15T04:56:11;11.60;99.90
24262;DHT22;12385;51.412;5.540;2022-11-15T04:58:37;11.60;99.90
24262;DHT22;12385;51.412;5.540;2022-11-15T05:01:11;11.60;99.90
24262;DHT22;12385;51.412;5.540;2022-11-15T05:03:37;11.60;99.90
24262;DHT22;12385;51.412;5.540;2022-11-15T05:06:22;11.60;99.90
24262;DHT22;12385;51.412;5.540;2022-11-15T05:08:48;11.60;99.90
24262;DHT22;12385;51.412;5.540;2022-11-15T05:11:13;11.60;99.90
24262;DHT22;12385;51.412;5.540;2022-11-15T05:13:39;11.60;99.90
24262;DHT22;12385;51.412;5.540;2022-11-15T05:16:05;11.60;99.90
24262;DHT22;12385;51.412;5.540;2022-11-15T05:18:30;11.60;99.90
24262;DHT22;12385;51.412;5.540;2022-11-15T05:20:56;11.60;99.90
24262;DHT22;12385;51.412;5.540;2022-11-15T05:23:27;11.60;99.90
24262;DHT22;12385;51.412;5.540;2022-11-15T05:25:53;11.60;99.90
24262;DHT22;12385;51.412;5.540;2022-11-15T05:28:19;11.60;99.90
24262;DHT22;12385;51.412;5.540;2022-11-15T05:30:44;11.60;99.90
24262;DHT22;12385;51.412;5.540;2022-11-15T05:33:10;11.60;99.90
24262;DHT22;12385;51.412;5.540;2022-11-15T05:35:41;11.70;99.90
24262;DHT22;12385;51.412;5.540;2022-11-15T05:38:07;11.70;99.90
24262;DHT22;12385;51.412;5.540;2022-11-15T05:40:33;11.60;99.90
24262;DHT22;12385;51.412;5.540;2022-11-15T05:43:00;11.70;99.90
24262;DHT22;12385;51.412;5.540;2022-11-15T05:45:28;11.70;99.90
24262;DHT22;12385;51.412;5.540;2022-11-15T05:47:56;11.70;99.90
24262;DHT22;12385;51.412;5.540;2022-11-15T05:50:22;11.70;99.90
24262;DHT22;12385;51.412;5.540;2022-11-15T05:52:48;11.70;99.90
24262;DHT22;12385;51.412;5.540;2022-11-15T05:55:14;11.70;99.90
24262;DHT22;12385;51.412;5.540;2022-11-15T05:57:40;11.70;99.90
24262;DHT22;12385;51.412;5.540;2022-11-15T06:00:06;11.70;99.90
24262;DHT22;12385;51.412;5.540;2022-11-15T06:02:33;11.70;99.90
24262;DHT22;12385;51.412;5.540;2022-11-15T06:04:59;11.70;99.90
24262;DHT22;12385;51.412;5.540;2022-11-15T06:07:24;11.70;99.90
24262;DHT22;12385;51.412;5.540;2022-11-15T06:09:50;11.70;99.90
24262;DHT22;12385;51.412;5.540;2022-11-15T06:12:16;11.70;99.90
24262;DHT22;12385;51.412;5.540;2022-11-15T06:14:41;11.70;99.90
24262;DHT22;12385;51.412;5.540;2022-11-15T06:17:07;11.70;99.90
24262;DHT22;12385;51.412;5.540;2022-11-15T06:19:33;11.60;99.90
24262;DHT22;12385;51.412;5.540;2022-11-15T06:22:01;11.60;99.90
24262;DHT22;12385;51.412;5.540;2022-11-15T06:24:27;11.60;99.90
24262;DHT22;12385;51.412;5.540;2022-11-15T06:26:54;11.60;99.90
24262;DHT22;12385;51.412;5.540;2022-11-15T06:29:20;11.60;99.90
24262;DHT22;12385;51.412;5.540;2022-11-15T06:31:45;11.60;99.90
24262;DHT22;12385;51.412;5.540;2022-11-15T06:34:12;11.60;99.90
24262;DHT22;12385;51.412;5.540;2022-11-15T06:36:38;11.60;99.90
24262;DHT22;12385;51.412;5.540;2022-11-15T06:39:04;11.60;99.90
24262;DHT22;12385;51.412;5.540;2022-11-15T06:41:30;11.60;99.90
24262;DHT22;12385;51.412;5.540;2022-11-15T06:43:57;11.60;99.90
24262;DHT22;12385;51.412;5.540;2022-11-15T06:46:23;11.50;99.90
24262;DHT22;12385;51.412;5.540;2022-11-15T06:48:51;11.50;99.90
24262;DHT22;12385;51.412;5.540;2022-11-15T06:51:16;11.50;99.90
24262;DHT22;12385;51.412;5.540;2022-11-15T06:53:42;11.50;99.90
24262;DHT22;12385;51.412;5.540;2022-11-15T06:56:08;11.50;99.90
24262;DHT22;12385;51.412;5.540;2022-11-15T06:58:35;11.50;99.90
24262;DHT22;12385;51.412;5.540;2022-11-15T07:01:09;11.40;99.90
24262;DHT22;12385;51.412;5.540;2022-11-15T07:03:36;11.40;99.90
24262;DHT22;12385;51.412;5.540;2022-11-15T07:06:02;11.40;99.90
24262;DHT22;12385;51.412;5.540;2022-11-15T07:08:28;11.40;99.90
24262;DHT22;12385;51.412;5.540;2022-11-15T07:10:59;11.40;99.90
24262;DHT22;12385;51.412;5.540;2022-11-15T07:13:26;11.30;99.90
24262;DHT22;12385;51.412;5.540;2022-11-15T07:15:52;11.30;99.90
24262;DHT22;12385;51.412;5.540;2022-11-15T07:18:19;11.30;99.90
24262;DHT22;12385;51.412;5.540;2022-11-15T07:20:45;11.40;99.90
24262;DHT22;12385;51.412;5.540;2022-11-15T07:23:11;11.30;99.90
24262;DHT22;12385;51.412;5.540;2022-11-15T07:25:39;11.30;99.90
24262;DHT22;12385;51.412;5.540;2022-11-15T07:28:04;11.30;99.90
24262;DHT22;12385;51.412;5.540;2022-11-15T07:30:30;11.30;99.90
24262;DHT22;12385;51.412;5.540;2022-11-15T07:32:57;11.30;99.90
24262;DHT22;12385;51.412;5.540;2022-11-15T07:35:24;11.30;99.90
24262;DHT22;12385;51.412;5.540;2022-11-15T07:37:58;11.30;99.90
24262;DHT22;12385;51.412;5.540;2022-11-15T07:40:25;11.30;99.90
24262;DHT22;12385;51.412;5.540;2022-11-15T07:42:51;11.30;99.90
24262;DHT22;12385;51.412;5.540;2022-11-15T07:45:20;11.30;99.90
24262;DHT22;12385;51.412;5.540;2022-11-15T07:47:47;11.30;99.90
24262;DHT22;12385;51.412;5.540;2022-11-15T07:50:13;11.30;99.90
24262;DHT22;12385;51.412;5.540;2022-11-15T07:52:39;11.20;99.90
24262;DHT22;12385;51.412;5.540;2022-11-15T07:55:05;11.20;99.90
24262;DHT22;12385;51.412;5.540;2022-11-15T07:57:31;11.20;99.90
24262;DHT22;12385;51.412;5.540;2022-11-15T07:59:57;11.10;99.90
24262;DHT22;12385;51.412;5.540;2022-11-15T08:02:23;11.10;99.90
24262;DHT22;12385;51.412;5.540;2022-11-15T08:04:49;11.10;99.90
24262;DHT22;12385;51.412;5.540;2022-11-15T08:07:14;11.10;99.90
24262;DHT22;12385;51.412;5.540;2022-11-15T08:09:40;11.10;99.90
24262;DHT22;12385;51.412;5.540;2022-11-15T08:12:05;11.10;99.90
24262;DHT22;12385;51.412;5.540;2022-11-15T08:14:31;11.00;99.90
24262;DHT22;12385;51.412;5.540;2022-11-15T08:16:57;11.00;99.90
24262;DHT22;12385;51.412;5.540;2022-11-15T08:19:22;11.00;99.90
24262;DHT22;12385;51.412;5.540;2022-11-15T08:21:48;11.00;99.90
24262;DHT22;12385;51.412;5.540;2022-11-15T08:24:14;10.90;99.90
24262;DHT22;12385;51.412;5.540;2022-11-15T08:26:40;10.90;99.90
24262;DHT22;12385;51.412;5.540;2022-11-15T08:29:06;10.90;99.90
24262;DHT22;12385;51.412;5.540;2022-11-15T08:31:34;10.90;99.90
24262;DHT22;12385;51.412;5.540;2022-11-15T08:34:05;10.90;99.90
24262;DHT22;12385;51.412;5.540;2022-11-15T08:36:31;10.90;99.90
24262;DHT22;12385;51.412;5.540;2022-11-15T08:38:57;10.90;99.90
24262;DHT22;12385;51.412;5.540;2022-11-15T08:41:26;10.90;99.90
24262;DHT22;12385;51.412;5.540;2022-11-15T08:43:53;10.90;99.90
24262;DHT22;12385;51.412;5.540;2022-11-15T08:46:19;10.90;99.90
24262;DHT22;12385;51.412;5.540;2022-11-15T08:48:45;10.90;99.90
24262;DHT22;12385;51.412;5.540;2022-11-15T08:51:10;11.00;99.90
24262;DHT22;12385;51.412;5.540;2022-11-15T08:53:36;11.00;99.90
24262;DHT22;12385;51.412;5.540;2022-11-15T08:56:02;11.00;99.90
24262;DHT22;12385;51.412;5.540;2022-11-15T08:58:28;11.00;99.90
24262;DHT22;12385;51.412;5.540;2022-11-15T09:00:54;11.00;99.90
24262;DHT22;12385;51.412;5.540;2022-11-15T09:03:20;11.00;99.90
24262;DHT22;12385;51.412;5.540;2022-11-15T09:05:46;11.00;99.90
24262;DHT22;12385;51.412;5.540;2022-11-15T09:08:11;11.10;99.90
24262;DHT22;12385;51.412;5.540;2022-11-15T09:10:38;11.10;99.90
24262;DHT22;12385;51.412;5.540;2022-11-15T09:13:04;11.20;99.90
24262;DHT22;12385;51.412;5.540;2022-11-15T09:15:29;11.20;99.90
24262;DHT22;12385;51.412;5.540;2022-11-15T09:17:58;11.30;99.90
24262;DHT22;12385;51.412;5.540;2022-11-15T09:20:24;11.20;99.90
24262;DHT22;12385;51.412;5.540;2022-11-15T09:22:50;11.20;99.90
24262;DHT22;12385;51.412;5.540;2022-11-15T09:25:16;11.20;99.90
24262;DHT22;12385;51.412;5.540;2022-11-15T09:27:42;11.20;99.90
24262;DHT22;12385;51.412;5.540;2022-11-15T09:30:09;11.20;99.90
24262;DHT22;12385;51.412;5.540;2022-11-15T09:32:35;11.20;99.90
24262;DHT22;12385;51.412;5.540;2022-11-15T09:35:01;11.20;99.90
24262;DHT22;12385;51.412;5.540;2022-11-15T09:37:26;11.20;99.90
24262;DHT22;12385;51.412;5.540;2022-11-15T09:39:52;11.20;99.90
24262;DHT22;12385;51.412;5.540;2022-11-15T09:53:04;11.20;99.90
24262;DHT22;12385;51.412;5.540;2022-11-15T09:55:53;11.10;99.90
24262;DHT22;12385;51.412;5.540;2022-11-15T10:00:49;11.10;99.90
24262;DHT22;12385;51.412;5.540;2022-11-15T10:05:51;11.10;99.90
24262;DHT22;12385;51.412;5.540;2022-11-15T10:11:17;11.10;99.90
24262;DHT22;12385;51.412;5.540;2022-11-15T10:13:45;11.20;99.90
24262;DHT22;12385;51.412;5.540;2022-11-15T10:16:33;11.20;99.90
24262;DHT22;12385;51.412;5.540;2022-11-15T10:24:26;11.30;99.90
24262;DHT22;12385;51.412;5.540;2022-11-15T10:26:56;11.30;99.90
24262;DHT22;12385;51.412;5.540;2022-11-15T10:29:23;11.30;99.90
24262;DHT22;12385;51.412;5.540;2022-11-15T10:31:49;11.30;99.90
24262;DHT22;12385;51.412;5.540;2022-11-15T10:34:21;11.30;99.90
24262;DHT22;12385;51.412;5.540;2022-11-15T10:36:58;11.40;99.90
24262;DHT22;12385;51.412;5.540;2022-11-15T10:39:24;11.40;99.90
24262;DHT22;12385;51.412;5.540;2022-11-15T10:41:51;11.40;99.90
24262;DHT22;12385;51.412;5.540;2022-11-15T10:46:44;11.40;99.90
24262;DHT22;12385;51.412;5.540;2022-11-15T10:49:23;11.40;99.90
24262;DHT22;12385;51.412;5.540;2022-11-15T10:54:29;11.40;99.90
24262;DHT22;12385;51.412;5.540;2022-11-15T10:57:04;11.40;99.90
24262;DHT22;12385;51.412;5.540;2022-11-15T10:59:32;11.40;99.90
24262;DHT22;12385;51.412;5.540;2022-11-15T11:01:59;11.40;99.90
24262;DHT22;12385;51.412;5.540;2022-11-15T11:04:25;11.50;99.90
24262;DHT22;12385;51.412;5.540;2022-11-15T11:06:53;11.50;99.90
24262;DHT22;12385;51.412;5.540;2022-11-15T11:11:51;11.60;99.90
24262;DHT22;12385;51.412;5.540;2022-11-15T11:14:21;11.70;99.90
24262;DHT22;12385;51.412;5.540;2022-11-15T11:16:52;11.70;99.90
24262;DHT22;12385;51.412;5.540;2022-11-15T11:31:36;12.10;99.90
24262;DHT22;12385;51.412;5.540;2022-11-15T11:33:57;12.10;99.90
24262;DHT22;12385;51.412;5.540;2022-11-15T11:36:54;12.20;99.90
24262;DHT22;12385;51.412;5.540;2022-11-15T11:39:51;12.30;99.90
24262;DHT22;12385;51.412;5.540;2022-11-15T11:47:51;12.50;99.90
24262;DHT22;12385;51.412;5.540;2022-11-15T11:50:25;12.50;99.90
24262;DHT22;12385;51.412;5.540;2022-11-15T11:55:43;12.70;99.90
24262;DHT22;12385;51.412;5.540;2022-11-15T12:00:56;12.80;99.90
24262;DHT22;12385;51.412;5.540;2022-11-15T12:03:46;12.90;99.90
24262;DHT22;12385;51.412;5.540;2022-11-15T12:06:51;12.90;99.90
24262;DHT22;12385;51.412;5.540;2022-11-15T12:09:36;12.90;99.90
24262;DHT22;12385;51.412;5.540;2022-11-15T12:12:18;13.00;99.90
24262;DHT22;12385;51.412;5.540;2022-11-15T12:14:56;13.00;99.90
24262;DHT22;12385;51.412;5.540;2022-11-15T12:17:25;13.00;99.90
24262;DHT22;12385;51.412;5.540;2022-11-15T12:20:25;13.00;99.90
24262;DHT22;12385;51.412;5.540;2022-11-15T12:25:30;13.10;99.90
24262;DHT22;12385;51.412;5.540;2022-11-15T12:33:37;13.20;99.90
24262;DHT22;12385;51.412;5.540;2022-11-15T12:36:37;13.30;99.90
24262;DHT22;12385;51.412;5.540;2022-11-15T12:39:04;13.40;99.90
24262;DHT22;12385;51.412;5.540;2022-11-15T12:41:38;13.30;99.90
24262;DHT22;12385;51.412;5.540;2022-11-15T13:02:40;13.40;99.90
24262;DHT22;12385;51.412;5.540;2022-11-15T13:36:15;13.60;99.90
24262;DHT22;12385;51.412;5.540;2022-11-15T13:38:43;13.60;99.90
24262;DHT22;12385;51.412;5.540;2022-11-15T13:41:23;13.60;99.90
24262;DHT22;12385;51.412;5.540;2022-11-15T13:43:50;13.60;99.90
24262;DHT22;12385;51.412;5.540;2022-11-15T13:46:30;13.60;99.90
24262;DHT22;12385;51.412;5.540;2022-11-15T13:49:09;13.60;99.90
24262;DHT22;12385;51.412;5.540;2022-11-15T13:54:25;13.60;99.90
24262;DHT22;12385;51.412;5.540;2022-11-15T13:56:53;13.50;99.90
24262;DHT22;12385;51.412;5.540;2022-11-15T13:59:29;13.50;99.90
24262;DHT22;12385;51.412;5.540;2022-11-15T14:01:58;13.50;99.90
24262;DHT22;12385;51.412;5.540;2022-11-15T14:04:26;13.50;99.90
24262;DHT22;12385;51.412;5.540;2022-11-15T14:06:59;13.40;99.90
24262;DHT22;12385;51.412;5.540;2022-11-15T14:09:37;13.40;99.90
24262;DHT22;12385;51.412;5.540;2022-11-15T14:14:50;13.40;99.90
24262;DHT22;12385;51.412;5.540;2022-11-15T14:17:21;13.40;99.90
24262;DHT22;12385;51.412;5.540;2022-11-15T14:19:49;13.40;99.90
24262;DHT22;12385;51.412;5.540;2022-11-15T14:22:23;13.40;99.90
24262;DHT22;12385;51.412;5.540;2022-11-15T14:25:15;13.40;99.90
24262;DHT22;12385;51.412;5.540;2022-11-15T14:27:43;13.40;99.90
24262;DHT22;12385;51.412;5.540;2022-11-15T14:30:14;13.40;99.90
24262;DHT22;12385;51.412;5.540;2022-11-15T14:32:48;13.40;99.90
24262;DHT22;12385;51.412;5.540;2022-11-15T14:35:22;13.40;99.90
24262;DHT22;12385;51.412;5.540;2022-11-15T14:37:49;13.40;99.90
24262;DHT22;12385;51.412;5.540;2022-11-15T14:40:17;13.40;99.90
24262;DHT22;12385;51.412;5.540;2022-11-15T14:42:44;13.40;99.90
24262;DHT22;12385;51.412;5.540;2022-11-15T14:45:19;13.40;99.90
24262;DHT22;12385;51.412;5.540;2022-11-15T14:47:45;13.40;99.90
24262;DHT22;12385;51.412;5.540;2022-11-15T14:50:16;13.30;99.90
24262;DHT22;12385;51.412;5.540;2022-11-15T14:52:43;13.30;99.90
24262;DHT22;12385;51.412;5.540;2022-11-15T14:55:30;13.40;99.90
24262;DHT22;12385;51.412;5.540;2022-11-15T14:57:58;13.40;99.90
24262;DHT22;12385;51.412;5.540;2022-11-15T15:00:24;13.30;99.90
24262;DHT22;12385;51.412;5.540;2022-11-15T15:02:53;13.30;99.90
24262;DHT22;12385;51.412;5.540;2022-11-15T15:05:22;13.30;99.90
24262;DHT22;12385;51.412;5.540;2022-11-15T15:07:49;13.30;99.90
24262;DHT22;12385;51.412;5.540;2022-11-15T15:10:16;13.30;99.90
24262;DHT22;12385;51.412;5.540;2022-11-15T15:12:42;13.30;99.90
24262;DHT22;12385;51.412;5.540;2022-11-15T15:15:22;13.30;99.90
24262;DHT22;12385;51.412;5.540;2022-11-15T15:17:50;13.30;99.90
24262;DHT22;12385;51.412;5.540;2022-11-15T15:20:19;13.20;99.90
24262;DHT22;12385;51.412;5.540;2022-11-15T15:22:48;13.20;99.90
24262;DHT22;12385;51.412;5.540;2022-11-15T15:25:23;13.20;99.90
24262;DHT22;12385;51.412;5.540;2022-11-15T15:27:55;13.20;99.90
24262;DHT22;12385;51.412;5.540;2022-11-15T15:30:22;13.20;99.90
24262;DHT22;12385;51.412;5.540;2022-11-15T15:32:48;13.20;99.90
24262;DHT22;12385;51.412;5.540;2022-11-15T15:35:15;13.20;99.90
24262;DHT22;12385;51.412;5.540;2022-11-15T15:37:41;13.20;99.90
24262;DHT22;12385;51.412;5.540;2022-11-15T15:40:17;13.20;99.90
24262;DHT22;12385;51.412;5.540;2022-11-15T15:42:43;13.20;99.90
24262;DHT22;12385;51.412;5.540;2022-11-15T15:45:09;13.20;99.90
24262;DHT22;12385;51.412;5.540;2022-11-15T15:47:35;13.20;99.90
24262;DHT22;12385;51.412;5.540;2022-11-15T15:50:01;13.20;99.90
24262;DHT22;12385;51.412;5.540;2022-11-15T15:52:27;13.20;99.90
24262;DHT22;12385;51.412;5.540;2022-11-15T15:54:53;13.10;99.90
24262;DHT22;12385;51.412;5.540;2022-11-15T15:57:18;13.20;99.90
24262;DHT22;12385;51.412;5.540;2022-11-15T15:59:44;13.10;99.90
24262;DHT22;12385;51.412;5.540;2022-11-15T16:02:12;13.10;99.90
24262;DHT22;12385;51.412;5.540;2022-11-15T16:04:38;13.10;99.90
24262;DHT22;12385;51.412;5.540;2022-11-15T16:07:04;13.10;99.90
24262;DHT22;12385;51.412;5.540;2022-11-15T16:09:30;13.10;99.90
24262;DHT22;12385;51.412;5.540;2022-11-15T16:12:14;13.10;99.90
24262;DHT22;12385;51.412;5.540;2022-11-15T16:14:42;13.10;99.90
24262;DHT22;12385;51.412;5.540;2022-11-15T16:17:20;13.10;99.90
24262;DHT22;12385;51.412;5.540;2022-11-15T16:19:47;13.10;99.90
24262;DHT22;12385;51.412;5.540;2022-11-15T16:22:12;13.10;99.90
24262;DHT22;12385;51.412;5.540;2022-11-15T16:24:38;13.10;99.90
24262;DHT22;12385;51.412;5.540;2022-11-15T16:27:04;13.10;99.90
24262;DHT22;12385;51.412;5.540;2022-11-15T16:29:29;13.00;99.90
24262;DHT22;12385;51.412;5.540;2022-11-15T16:31:55;13.00;99.90
24262;DHT22;12385;51.412;5.540;2022-11-15T16:34:21;13.00;99.90
24262;DHT22;12385;51.412;5.540;2022-11-15T16:36:47;12.90;99.90
24262;DHT22;12385;51.412;5.540;2022-11-15T16:39:13;12.90;99.90
24262;DHT22;12385;51.412;5.540;2022-11-15T16:41:40;12.90;99.90
24262;DHT22;12385;51.412;5.540;2022-11-15T16:44:06;12.80;99.90
24262;DHT22;12385;51.412;5.540;2022-11-15T16:46:31;12.80;99.90
24262;DHT22;12385;51.412;5.540;2022-11-15T16:48:57;12.80;99.90
24262;DHT22;12385;51.412;5.540;2022-11-15T16:51:23;12.70;99.90
24262;DHT22;12385;51.412;5.540;2022-11-15T16:53:50;12.70;99.90
24262;DHT22;12385;51.412;5.540;2022-11-15T16:56:23;12.60;99.90
24262;DHT22;12385;51.412;5.540;2022-11-15T16:58:50;12.60;99.90
24262;DHT22;12385;51.412;5.540;2022-11-15T17:01:24;12.50;99.90
24262;DHT22;12385;51.412;5.540;2022-11-15T17:03:50;12.50;99.90
24262;DHT22;12385;51.412;5.540;2022-11-15T17:06:16;12.40;99.90
24262;DHT22;12385;51.412;5.540;2022-11-15T17:08:46;12.40;99.90
24262;DHT22;12385;51.412;5.540;2022-11-15T17:11:17;12.40;99.90
24262;DHT22;12385;51.412;5.540;2022-11-15T17:13:44;12.30;99.90
24262;DHT22;12385;51.412;5.540;2022-11-15T17:16:14;12.30;99.90
24262;DHT22;12385;51.412;5.540;2022-11-15T17:18:41;12.30;99.90
24262;DHT22;12385;51.412;5.540;2022-11-15T17:21:15;12.30;99.90
24262;DHT22;12385;51.412;5.540;2022-11-15T17:23:44;12.20;99.90
24262;DHT22;12385;51.412;5.540;2022-11-15T17:26:13;12.20;99.90
24262;DHT22;12385;51.412;5.540;2022-11-15T17:28:39;12.20;99.90
24262;DHT22;12385;51.412;5.540;2022-11-15T17:31:06;12.10;99.90
24262;DHT22;12385;51.412;5.540;2022-11-15T17:33:33;12.10;99.90
24262;DHT22;12385;51.412;5.540;2022-11-15T17:36:01;12.10;99.90
24262;DHT22;12385;51.412;5.540;2022-11-15T17:38:27;12.10;99.90
24262;DHT22;12385;51.412;5.540;2022-11-15T17:43:26;12.10;99.90
24262;DHT22;12385;51.412;5.540;2022-11-15T17:45:52;12.00;99.90
24262;DHT22;12385;51.412;5.540;2022-11-15T17:48:19;12.00;99.90
24262;DHT22;12385;51.412;5.540;2022-11-15T17:50:55;12.00;99.90
24262;DHT22;12385;51.412;5.540;2022-11-15T17:53:21;12.00;99.90
24262;DHT22;12385;51.412;5.540;2022-11-15T17:55:50;11.90;99.90
24262;DHT22;12385;51.412;5.540;2022-11-15T17:58:16;11.90;99.90
24262;DHT22;12385;51.412;5.540;2022-11-15T18:00:46;11.90;99.90
24262;DHT22;12385;51.412;5.540;2022-11-15T18:03:12;11.90;99.90
24262;DHT22;12385;51.412;5.540;2022-11-15T18:05:38;11.90;99.90